Terminal Aerodrome Forecast
Issued by NWS

Home | Current Version | Previous Version | Text Only | Print | Product List | Glossary On
Versions: 1 2 3 4 5 6 7 8 9 10 11 12 13 14 15
000
FTAK31 PAJN 231100
TAFASI
TAF
PASI 231125Z 2312/2412 VRB03KT P6SM OVC015
     FM231500 22006KT P6SM FEW015 BKN025 OVC060
     FM232200 24006KT P6SM VCSH BKN035 OVC060
     FM240400 27005KT P6SM -RA FEW015 SCT025 OVC050=

USA.gov is the U.S. government's official web portal to all federal, state and local government web resources and services.